ENNE

Norne Fpso Oilp

Norne Fpso Oilp, Norway
METAR ENNE 190320Z AUTO 16020KT 9999NDV BKN023/// 01/M03 Q0992 W///S5
Observed Flight Rules
Jan-19 @ 03:20 UTC (24 minutes ago)
Wind Clouds
160° at 20 knots
  • Broken at 2,300' AGL
Temperatures Readings
Current 1°C / 34°F
Dewpoint -3°C / 27°F
Humidity 75%
Altimeter 29.29" Hg
Pressure 992 hPa
Elevation 10
METAR ENNE 190320Z AUTO 16020KT 9999NDV BKN023/// 01/M03 Q0992 W///S5
Observed Flight Rules
Jan-19 @ 03:20 UTC
(24 minutes ago)
Wind
160° at 20 knots
Clouds
  • Broken at 2,300' AGL
Temperature Dewpoint
1°C / 34°F -3°C / 27°F
Humidity Altimeter Pressure
75% 29.29" Hg 992 hPa